Time;durP1;ratioP1;P1;durP2;ratioP2;P2;SDS_P1;SDS_P2;PMS_P1;PMS_P2;Temp;Humidity;BMP_temperature;BMP_pressure;BME280_temperature;BME280_humidity;BME280_pressure;Samples;Min_cycle;Max_cycle;Signal;HPM_P1;HPM_P2
2021/03/31 00:00:39;;;;;;;31.33;12.70;;;12.90;92.50;;;;;;5072592;28;20028;-70
2021/03/31 00:03:10;;;;;;;20.75;13.55;;;12.90;92.50;;;;;;5070654;28;20029;-71
2021/03/31 00:05:36;;;;;;;23.45;14.02;;;12.80;92.50;;;;;;5065009;28;20032;-71
2021/03/31 00:08:02;;;;;;;22.70;13.70;;;12.70;92.40;;;;;;5068470;28;20031;-70
2021/03/31 00:10:49;;;;;;;25.73;12.43;;;12.70;92.70;;;;;;5070054;28;20021;-70
2021/03/31 00:13:17;;;;;;;29.13;14.90;;;12.60;92.90;;;;;;5066131;28;20033;-71
2021/03/31 00:15:43;;;;;;;23.13;13.27;;;12.50;92.40;;;;;;5063251;28;20102;-71
2021/03/31 00:18:10;;;;;;;25.90;14.30;;;12.40;92.90;;;;;;5070618;28;20496;-71
2021/03/31 00:20:36;;;;;;;28.10;14.27;;;12.30;92.60;;;;;;5074414;28;20021;-70
2021/03/31 00:23:08;;;;;;;24.23;14.52;;;12.30;92.00;;;;;;5059864;28;20053;-70
2021/03/31 00:25:33;;;;;;;22.40;13.25;;;12.30;92.40;;;;;;5052016;28;20029;-70
2021/03/31 00:27:59;;;;;;;21.90;12.63;;;12.30;92.10;;;;;;5070852;28;20078;-70
2021/03/31 00:30:27;;;;;;;19.63;12.95;;;12.30;92.00;;;;;;5071620;28;20362;-70
2021/03/31 00:32:53;;;;;;;28.00;14.73;;;12.30;92.00;;;;;;5067356;28;20024;-71
2021/03/31 00:35:18;;;;;;;24.70;13.18;;;12.20;91.60;;;;;;5070405;28;20496;-70
2021/03/31 00:37:44;;;;;;;23.90;13.73;;;12.10;92.00;;;;;;5066223;28;20380;-70
2021/03/31 00:40:16;;;;;;;23.65;13.93;;;12.00;91.80;;;;;;5064391;28;20025;-71
2021/03/31 00:42:44;;;;;;;25.73;13.63;;;11.90;91.50;;;;;;5065589;28;20477;-70
2021/03/31 00:45:12;;;;;;;26.10;14.85;;;11.90;91.40;;;;;;5068340;28;20025;-71
2021/03/31 00:47:38;;;;;;;24.48;15.02;;;11.90;91.20;;;;;;5071371;28;20074;-71
2021/03/31 00:50:13;;;;;;;24.92;14.57;;;11.90;91.00;;;;;;5069365;28;20032;-70
2021/03/31 00:52:41;;;;;;;32.85;16.52;;;11.90;91.10;;;;;;5060108;28;20042;-71
2021/03/31 00:55:08;;;;;;;27.90;14.05;;;12.00;91.20;;;;;;5067680;28;20427;-69
2021/03/31 00:57:34;;;;;;;26.05;15.25;;;12.00;91.20;;;;;;5068158;28;20045;-71
2021/03/31 01:00:00;;;;;;;25.92;13.35;;;12.00;91.30;;;;;;5064939;28;20035;-71
2021/03/31 01:02:25;;;;;;;25.80;15.32;;;12.00;92.40;;;;;;5071630;28;20357;-71
2021/03/31 01:04:51;;;;;;;23.83;15.25;;;12.00;92.60;;;;;;5069146;28;20039;-71
2021/03/31 01:07:17;;;;;;;26.98;15.45;;;11.90;92.70;;;;;;5071100;28;20404;-70
2021/03/31 01:09:43;;;;;;;28.75;15.23;;;11.80;93.50;;;;;;5068374;28;20028;-70
2021/03/31 01:12:47;;;;;;;27.20;16.35;;;11.80;93.90;;;;;;5078578;28;20012;-70
2021/03/31 01:15:22;;;;;;;24.88;14.93;;;11.80;93.30;;;;;;5057623;28;20036;-71
2021/03/31 01:17:57;;;;;;;26.05;15.73;;;11.90;92.80;;;;;;5067591;28;20481;-70
2021/03/31 01:20:31;;;;;;;29.58;15.05;;;12.00;92.70;;;;;;5071258;28;20108;-71
2021/03/31 01:23:14;;;;;;;26.25;14.68;;;12.00;92.70;;;;;;5063987;28;20040;-70
2021/03/31 01:25:46;;;;;;;27.65;15.23;;;11.80;93.70;;;;;;5066784;28;20032;-70
2021/03/31 01:28:39;;;;;;;20.75;12.95;;;11.80;93.70;;;;;;5065924;28;20035;-70
2021/03/31 01:31:38;;;;;;;21.58;14.57;;;11.70;94.20;;;;;;5063698;28;20029;-71
2021/03/31 01:34:44;;;;;;;29.33;16.92;;;11.70;93.70;;;;;;5066873;28;20024;-70
2021/03/31 01:37:28;;;;;;;22.63;15.65;;;11.70;93.40;;;;;;5066364;28;20424;-71
2021/03/31 01:39:56;;;;;;;23.23;13.70;;;11.70;93.70;;;;;;5069937;28;20066;-70
2021/03/31 01:42:26;;;;;;;21.50;13.55;;;11.60;94.40;;;;;;5065012;28;20029;-70
2021/03/31 01:44:57;;;;;;;24.02;14.70;;;11.40;94.30;;;;;;5071905;28;20029;-70
2021/03/31 01:47:25;;;;;;;23.05;13.77;;;11.20;94.40;;;;;;5070582;28;20021;-70
2021/03/31 01:49:53;;;;;;;25.63;14.75;;;11.10;93.90;;;;;;5065145;28;20029;-70
2021/03/31 01:52:20;;;;;;;25.02;15.55;;;11.00;94.30;;;;;;5063563;28;20420;-71
2021/03/31 01:54:47;;;;;;;26.80;15.63;;;11.00;94.50;;;;;;5064705;28;20040;-70
2021/03/31 01:57:13;;;;;;;25.42;14.88;;;11.00;93.90;;;;;;5067392;28;20111;-71
2021/03/31 01:59:41;;;;;;;30.98;15.35;;;11.00;93.70;;;;;;5068292;28;20538;-70
2021/03/31 02:02:10;;;;;;;27.58;15.02;;;11.00;93.80;;;;;;5061540;28;20064;-70
2021/03/31 02:04:38;;;;;;;26.02;17.00;;;11.00;94.20;;;;;;5065188;28;20399;-71
2021/03/31 02:07:05;;;;;;;24.83;15.50;;;10.90;94.40;;;;;;5068449;28;20416;-70
2021/03/31 02:09:34;;;;;;;25.25;15.00;;;10.90;94.40;;;;;;5065370;28;20519;-70
2021/03/31 02:12:01;;;;;;;35.20;17.70;;;11.00;94.50;;;;;;5065189;28;20390;-70
2021/03/31 02:14:27;;;;;;;23.95;14.13;;;10.90;94.40;;;;;;5071610;28;20033;-70
2021/03/31 02:16:54;;;;;;;25.38;16.30;;;11.00;94.60;;;;;;5064132;28;20043;-71
2021/03/31 02:19:22;;;;;;;27.65;17.17;;;11.00;94.70;;;;;;5064878;28;20107;-71
2021/03/31 02:21:49;;;;;;;29.67;17.77;;;10.90;94.40;;;;;;5058567;28;20059;-71
2021/03/31 02:24:19;;;;;;;26.85;17.52;;;10.90;94.40;;;;;;5065469;28;20048;-70
2021/03/31 02:26:45;;;;;;;26.92;17.35;;;10.90;94.30;;;;;;5065183;28;20035;-70
2021/03/31 02:29:10;;;;;;;25.42;16.10;;;10.90;94.40;;;;;;5069677;28;20021;-71
2021/03/31 02:31:38;;;;;;;28.13;15.40;;;10.90;94.90;;;;;;5064614;28;20021;-71
2021/03/31 02:34:05;;;;;;;25.88;15.40;;;10.90;94.90;;;;;;5064165;28;20029;-71
2021/03/31 02:36:33;;;;;;;24.02;14.52;;;10.90;95.10;;;;;;5058995;28;20516;-71
2021/03/31 02:39:00;;;;;;;29.02;15.45;;;10.90;95.20;;;;;;5062238;28;20032;-71
2021/03/31 02:41:27;;;;;;;24.80;15.93;;;10.90;95.20;;;;;;5061741;28;20023;-70
2021/03/31 02:43:55;;;;;;;24.63;16.33;;;10.90;94.90;;;;;;5064604;28;20027;-70
2021/03/31 02:46:23;;;;;;;25.05;15.00;;;10.80;95.20;;;;;;5071791;28;20040;-70
2021/03/31 02:48:51;;;;;;;28.10;15.82;;;10.90;95.20;;;;;;5066873;28;20077;-70
2021/03/31 02:51:21;;;;;;;26.45;16.10;;;10.90;95.40;;;;;;5068789;28;20420;-70
2021/03/31 02:53:49;;;;;;;26.10;15.95;;;10.90;95.80;;;;;;5058557;28;20037;-71
2021/03/31 02:56:17;;;;;;;27.42;15.98;;;10.80;96.00;;;;;;5066550;28;20044;-71
2021/03/31 02:58:44;;;;;;;30.90;16.63;;;10.80;95.90;;;;;;5063506;28;20035;-70
2021/03/31 03:01:10;;;;;;;27.60;16.02;;;10.60;96.50;;;;;;5071327;28;20028;-71
2021/03/31 03:03:37;;;;;;;33.88;18.90;;;10.60;96.70;;;;;;5059637;28;20024;-70
2021/03/31 03:06:04;;;;;;;31.13;19.70;;;10.50;96.50;;;;;;5064697;28;20032;-70
2021/03/31 03:08:30;;;;;;;31.17;18.73;;;10.50;96.30;;;;;;5062827;28;20021;-71
2021/03/31 03:11:03;;;;;;;33.00;20.05;;;10.40;96.30;;;;;;5065159;28;20079;-70
2021/03/31 03:13:31;;;;;;;37.22;21.88;;;10.30;96.20;;;;;;5061857;28;20033;-70
2021/03/31 03:15:58;;;;;;;31.55;19.50;;;10.30;96.10;;;;;;5064424;28;20389;-71
2021/03/31 03:18:25;;;;;;;35.33;19.48;;;10.30;96.00;;;;;;5069567;28;20024;-70
2021/03/31 03:20:52;;;;;;;29.98;17.33;;;10.40;95.70;;;;;;5062371;28;20036;-70
2021/03/31 03:23:19;;;;;;;32.95;18.65;;;10.30;95.80;;;;;;5066216;28;20081;-70
2021/03/31 03:25:47;;;;;;;29.25;17.95;;;10.30;95.80;;;;;;5064360;28;20028;-70
2021/03/31 03:28:21;;;;;;;34.60;18.23;;;10.40;95.90;;;;;;5061980;28;20031;-70
2021/03/31 03:30:47;;;;;;;31.67;19.63;;;10.40;96.10;;;;;;5063976;28;20145;-71
2021/03/31 03:33:15;;;;;;;29.38;18.40;;;10.30;96.40;;;;;;5060379;28;20021;-71
2021/03/31 03:35:41;;;;;;;29.45;17.88;;;10.30;97.20;;;;;;5064282;28;20028;-70
2021/03/31 03:38:07;;;;;;;31.33;18.02;;;10.30;96.80;;;;;;5067331;28;20478;-70
2021/03/31 03:40:33;;;;;;;30.40;18.75;;;10.40;97.10;;;;;;5058099;28;20028;-70
2021/03/31 03:42:58;;;;;;;29.05;18.38;;;10.30;97.00;;;;;;5063285;28;20033;-70
2021/03/31 03:45:25;;;;;;;30.98;19.85;;;10.40;97.20;;;;;;5067013;28;20417;-70
2021/03/31 03:47:54;;;;;;;31.23;19.20;;;10.40;97.20;;;;;;5065145;28;20049;-70
2021/03/31 03:50:21;;;;;;;35.58;19.08;;;10.30;97.00;;;;;;5062815;28;20415;-70
2021/03/31 03:52:50;;;;;;;39.10;20.52;;;10.30;97.00;;;;;;5058032;28;20040;-70
2021/03/31 03:55:21;;;;;;;36.10;22.80;;;10.40;96.80;;;;;;5065603;28;20114;-70
2021/03/31 03:57:47;;;;;;;39.20;21.02;;;10.30;96.60;;;;;;5065334;28;20441;-70
2021/03/31 04:00:24;;;;;;;37.88;20.67;;;10.20;96.70;;;;;;5066076;28;20082;-71
2021/03/31 04:02:54;;;;;;;38.40;20.52;;;10.20;96.50;;;;;;5065148;28;20041;-70
2021/03/31 04:05:20;;;;;;;35.45;20.98;;;10.20;96.60;;;;;;5067076;28;20021;-71
2021/03/31 04:07:45;;;;;;;43.63;20.40;;;10.30;96.80;;;;;;5070534;28;20067;-70
2021/03/31 04:10:13;;;;;;;33.17;20.88;;;10.30;96.70;;;;;;5068556;28;20118;-70
2021/03/31 04:12:40;;;;;;;31.52;20.70;;;10.20;97.20;;;;;;5065251;28;20029;-71
2021/03/31 04:15:08;;;;;;;33.50;20.85;;;10.20;97.40;;;;;;5069044;28;20044;-70
2021/03/31 04:17:43;;;;;;;35.97;22.25;;;10.20;97.40;;;;;;5065646;28;20423;-70
2021/03/31 04:20:19;;;;;;;37.63;23.00;;;10.20;97.30;;;;;;5067293;28;20508;-70
2021/03/31 04:22:46;;;;;;;38.90;21.00;;;10.20;97.10;;;;;;5064597;28;20029;-70
2021/03/31 04:25:14;;;;;;;31.70;21.35;;;10.30;97.10;;;;;;5066888;28;20032;-70
2021/03/31 04:27:41;;;;;;;34.92;21.70;;;10.20;97.60;;;;;;5068797;28;20028;-70
2021/03/31 04:30:09;;;;;;;35.70;21.23;;;10.10;98.00;;;;;;5067008;28;20056;-71
2021/03/31 04:32:38;;;;;;;33.47;21.90;;;10.10;97.80;;;;;;5069273;28;20032;-70
2021/03/31 04:35:05;;;;;;;35.08;22.20;;;10.10;98.00;;;;;;5071287;28;20036;-70
2021/03/31 04:37:31;;;;;;;32.78;21.23;;;9.90;98.50;;;;;;5063781;28;20029;-70
2021/03/31 04:39:57;;;;;;;35.20;21.45;;;9.80;98.50;;;;;;5065399;28;20027;-70
2021/03/31 04:42:23;;;;;;;41.13;22.35;;;9.80;98.70;;;;;;5066711;28;20017;-70
2021/03/31 04:44:48;;;;;;;35.65;21.65;;;9.80;98.40;;;;;;5065831;28;20037;-70
2021/03/31 04:47:14;;;;;;;37.15;21.67;;;9.80;98.70;;;;;;5072551;28;20472;-70
2021/03/31 04:49:40;;;;;;;36.63;22.55;;;9.80;98.40;;;;;;5062313;28;20033;-70
2021/03/31 04:52:05;;;;;;;38.70;21.98;;;9.70;99.20;;;;;;5067412;28;20039;-70
2021/03/31 04:54:31;;;;;;;36.50;20.00;;;9.60;99.70;;;;;;5057923;28;20095;-70
2021/03/31 04:56:57;;;;;;;34.42;20.67;;;9.60;99.70;;;;;;5065002;28;20485;-70
2021/03/31 04:59:22;;;;;;;37.55;20.63;;;9.50;99.90;;;;;;5063166;28;20024;-70
2021/03/31 05:01:48;;;;;;;34.17;19.75;;;9.60;99.50;;;;;;5067882;28;20055;-70
2021/03/31 05:04:14;;;;;;;30.88;20.15;;;9.70;99.00;;;;;;5067152;28;20021;-70
2021/03/31 05:06:40;;;;;;;31.27;19.90;;;9.70;98.90;;;;;;5071316;28;20031;-70
2021/03/31 05:09:06;;;;;;;31.08;18.90;;;9.70;99.10;;;;;;5070219;28;20082;-70
2021/03/31 05:11:31;;;;;;;34.85;20.20;;;9.70;99.50;;;;;;5071075;28;20099;-70
2021/03/31 05:13:57;;;;;;;30.02;17.85;;;9.70;99.80;;;;;;5073627;28;20111;-70
2021/03/31 05:16:23;;;;;;;30.30;18.40;;;9.50;99.90;;;;;;5063424;28;20037;-70
2021/03/31 05:18:48;;;;;;;36.90;20.08;;;9.50;99.90;;;;;;5060810;28;20021;-71
2021/03/31 05:21:14;;;;;;;36.60;20.10;;;9.50;99.90;;;;;;5064572;28;20523;-70
2021/03/31 05:23:40;;;;;;;33.67;20.17;;;9.50;99.70;;;;;;5067765;28;20078;-70
2021/03/31 05:26:05;;;;;;;36.75;20.00;;;9.50;99.60;;;;;;5070339;28;20032;-70
2021/03/31 05:28:31;;;;;;;35.95;20.13;;;9.60;99.60;;;;;;5066278;28;20114;-70
2021/03/31 05:30:57;;;;;;;33.63;20.27;;;9.60;99.70;;;;;;5064338;28;20059;-71
2021/03/31 05:33:23;;;;;;;32.28;20.00;;;9.60;99.80;;;;;;5062124;28;20475;-70
2021/03/31 05:35:48;;;;;;;30.13;18.10;;;9.60;99.90;;;;;;5069678;28;20064;-70
2021/03/31 05:38:14;;;;;;;33.05;18.50;;;9.60;99.90;;;;;;5062477;28;20492;-70
2021/03/31 05:40:40;;;;;;;32.25;19.42;;;9.60;99.90;;;;;;5068471;28;20412;-70
2021/03/31 05:43:05;;;;;;;30.50;19.30;;;9.60;99.90;;;;;;5069698;28;20021;-70
2021/03/31 05:45:33;;;;;;;29.20;17.95;;;9.70;99.90;;;;;;5063508;28;20025;-70
2021/03/31 05:47:59;;;;;;;31.17;19.58;;;9.70;99.90;;;;;;5069982;28;20473;-71
2021/03/31 05:50:24;;;;;;;30.52;19.25;;;9.70;99.90;;;;;;5064058;28;20099;-70
2021/03/31 05:52:50;;;;;;;30.83;18.83;;;9.80;99.90;;;;;;5060213;28;20132;-70
2021/03/31 05:55:17;;;;;;;33.25;20.58;;;9.80;99.90;;;;;;5065847;28;20549;-70
2021/03/31 05:57:44;;;;;;;35.20;21.05;;;9.90;99.90;;;;;;5071015;28;20028;-70
2021/03/31 06:00:18;;;;;;;45.20;23.27;;;9.90;99.90;;;;;;5064273;28;20535;-69
2021/03/31 06:02:45;;;;;;;63.60;24.88;;;9.90;99.90;;;;;;5064914;28;20028;-70
2021/03/31 06:05:12;;;;;;;42.38;22.00;;;9.90;99.90;;;;;;5066815;28;20025;-70
2021/03/31 06:07:46;;;;;;;42.58;19.80;;;9.90;99.90;;;;;;5069103;28;20036;-70
2021/03/31 06:10:17;;;;;;;42.15;21.17;;;9.90;99.90;;;;;;5059325;28;20020;-70
2021/03/31 06:12:54;;;;;;;37.90;21.08;;;9.90;99.90;;;;;;5069911;28;20041;-70
2021/03/31 06:15:43;;;;;;;36.90;19.25;;;10.00;99.90;;;;;;5060936;28;20288;-70
2021/03/31 06:18:10;;;;;;;37.33;21.67;;;10.00;99.90;;;;;;5063068;28;20111;-70
2021/03/31 06:20:54;;;;;;;29.23;19.15;;;10.00;99.90;;;;;;5069775;28;20016;-70
2021/03/31 06:23:40;;;;;;;29.73;19.10;;;10.10;99.90;;;;;;5066181;28;20032;-70
2021/03/31 06:26:41;;;;;;;32.80;19.77;;;10.10;99.90;;;;;;5057789;28;20645;-70
2021/03/31 06:29:09;;;;;;;32.67;18.42;;;10.20;99.90;;;;;;5064508;28;20076;-70
2021/03/31 06:31:43;;;;;;;31.30;19.50;;;10.10;99.90;;;;;;5064225;28;20471;-71
2021/03/31 06:34:13;;;;;;;29.98;18.05;;;10.20;99.90;;;;;;5065419;28;20077;-70
2021/03/31 06:36:42;;;;;;;33.60;17.55;;;10.20;99.90;;;;;;5063085;28;20043;-70
2021/03/31 06:39:26;;;;;;;31.58;18.33;;;10.30;99.90;;;;;;5061960;28;20085;-71
2021/03/31 06:42:00;;;;;;;38.03;17.73;;;10.30;99.90;;;;;;5068770;28;20385;-70
2021/03/31 06:47:20;;;;;;;42.97;17.75;;;10.50;99.90;;;;;;5070061;28;20498;-71
2021/03/31 06:49:48;;;;;;;39.38;19.05;;;10.50;99.90;;;;;;5063302;28;20046;-71
2021/03/31 06:52:13;;;;;;;43.53;17.42;;;10.60;99.90;;;;;;5063098;28;20021;-70
2021/03/31 06:54:57;;;;;;;45.25;19.52;;;10.60;99.90;;;;;;5057543;28;20085;-71
2021/03/31 06:57:32;;;;;;;33.85;16.05;;;10.50;99.40;;;;;;5065651;28;20033;-71
2021/03/31 07:00:07;;;;;;;33.35;14.20;;;10.50;99.40;;;;;;5065154;28;20021;-71
2021/03/31 07:02:35;;;;;;;35.63;15.90;;;10.50;99.90;;;;;;5061564;28;20119;-70
2021/03/31 07:05:01;;;;;;;24.42;11.13;;;10.50;99.90;;;;;;5064741;28;20067;-71
2021/03/31 07:07:35;;;;;;;21.35;13.02;;;10.50;99.90;;;;;;5066459;28;20032;-70
2021/03/31 07:10:11;;;;;;;21.83;10.68;;;10.60;99.90;;;;;;5063829;28;20023;-70
2021/03/31 07:12:45;;;;;;;16.50;8.20;;;10.60;99.90;;;;;;5065370;28;20033;-71
2021/03/31 07:15:26;;;;;;;12.90;7.78;;;10.70;99.90;;;;;;5062295;28;20116;-70
2021/03/31 07:17:55;;;;;;;12.88;7.88;;;10.80;99.90;;;;;;5063288;28;20061;-69
2021/03/31 07:20:22;;;;;;;12.75;8.30;;;11.00;99.90;;;;;;5066584;28;20021;-70
2021/03/31 07:22:48;;;;;;;10.10;6.72;;;11.10;99.90;;;;;;5070325;28;20032;-69
2021/03/31 07:25:16;;;;;;;14.10;7.65;;;11.20;99.90;;;;;;5067311;28;20070;-69
2021/03/31 07:27:43;;;;;;;11.65;7.50;;;11.20;99.90;;;;;;5061830;28;20292;-70
2021/03/31 07:30:12;;;;;;;12.60;7.13;;;11.40;99.90;;;;;;5069697;28;20035;-70
2021/03/31 07:32:49;;;;;;;13.27;6.88;;;11.60;99.90;;;;;;5042235;28;20533;-70
2021/03/31 07:35:17;;;;;;;14.00;7.55;;;11.90;99.90;;;;;;5058010;28;20397;-70
2021/03/31 07:37:45;;;;;;;14.10;9.57;;;12.00;99.90;;;;;;5065095;28;20032;-69
2021/03/31 07:40:13;;;;;;;14.35;7.38;;;12.20;99.50;;;;;;5064794;28;20040;-69
2021/03/31 07:42:48;;;;;;;14.27;8.13;;;12.50;99.20;;;;;;5072103;28;20095;-70
2021/03/31 07:45:16;;;;;;;32.15;27.80;;;12.50;99.20;;;;;;5071082;28;20027;-69
2021/03/31 07:47:44;;;;;;;16.63;7.20;;;12.90;98.10;;;;;;5065126;28;20510;-70
2021/03/31 07:50:11;;;;;;;15.95;7.15;;;13.30;97.50;;;;;;5069185;28;20035;-70
2021/03/31 07:52:58;;;;;;;11.10;7.45;;;13.40;97.50;;;;;;5068634;28;20017;-71
2021/03/31 07:55:40;;;;;;;14.38;7.80;;;13.70;97.40;;;;;;5068978;28;20043;-71
2021/03/31 07:58:12;;;;;;;15.95;7.22;;;14.20;96.40;;;;;;5071930;28;20042;-70
2021/03/31 08:00:52;;;;;;;14.98;7.97;;;14.50;95.10;;;;;;5069985;28;20024;-72
2021/03/31 08:03:23;;;;;;;19.15;8.25;;;14.50;96.00;;;;;;5071884;28;20021;-71
2021/03/31 08:06:11;;;;;;;12.70;7.35;;;14.70;96.10;;;;;;5069717;28;20046;-72
2021/03/31 08:08:46;;;;;;;12.15;6.80;;;15.00;95.10;;;;;;5060512;28;20100;-72
2021/03/31 08:11:41;;;;;;;13.85;7.65;;;15.30;95.00;;;;;;5067530;28;20039;-72
2021/03/31 08:14:12;;;;;;;19.40;7.90;;;15.60;94.70;;;;;;5068427;28;20024;-72
2021/03/31 08:16:43;;;;;;;18.02;7.80;;;15.90;94.60;;;;;;5068453;28;20039;-71
2021/03/31 08:19:16;;;;;;;13.93;6.88;;;16.10;94.00;;;;;;5063282;28;20104;-72
2021/03/31 08:21:44;;;;;;;16.73;7.50;;;16.30;93.50;;;;;;5062601;28;20443;-71
2021/03/31 08:24:11;;;;;;;13.18;7.47;;;16.50;93.40;;;;;;5070492;28;20029;-71
2021/03/31 08:26:42;;;;;;;20.48;7.55;;;16.70;92.20;;;;;;5063721;28;20033;-71
2021/03/31 08:29:09;;;;;;;17.33;7.15;;;16.90;92.50;;;;;;5065245;28;20027;-71
2021/03/31 08:31:40;;;;;;;18.60;7.72;;;17.10;92.40;;;;;;5071663;28;20375;-71
2021/03/31 08:34:07;;;;;;;14.02;6.47;;;17.40;91.60;;;;;;5067156;28;20066;-71
2021/03/31 08:36:35;;;;;;;15.63;7.00;;;17.50;91.10;;;;;;5068733;28;20033;-71
2021/03/31 08:39:03;;;;;;;16.75;6.60;;;17.80;91.80;;;;;;5068428;28;20456;-71
2021/03/31 08:41:29;;;;;;;11.80;6.80;;;17.80;91.00;;;;;;5071011;28;20025;-72
2021/03/31 08:44:16;;;;;;;11.38;7.18;;;18.10;90.50;;;;;;5067298;28;20393;-70
2021/03/31 08:46:42;;;;;;;11.82;6.68;;;18.20;90.60;;;;;;5068184;28;20086;-72
2021/03/31 08:49:28;;;;;;;11.07;6.32;;;18.40;88.90;;;;;;5064996;28;20031;-72
2021/03/31 08:52:06;;;;;;;9.15;6.32;;;18.50;90.30;;;;;;5070768;28;20024;-72
2021/03/31 08:54:37;;;;;;;14.60;6.82;;;18.50;87.30;;;;;;5066779;28;20037;-71
2021/03/31 08:57:25;;;;;;;12.15;6.70;;;18.70;89.30;;;;;;5064401;28;20037;-71
2021/03/31 08:59:57;;;;;;;8.90;5.88;;;18.90;86.80;;;;;;5068026;28;20103;-72
2021/03/31 09:02:28;;;;;;;9.90;5.97;;;19.10;86.30;;;;;;5060531;28;20033;-73
2021/03/31 09:04:56;;;;;;;10.60;5.50;;;19.30;86.70;;;;;;5070497;28;20452;-72
2021/03/31 09:07:21;;;;;;;9.45;6.32;;;19.50;83.20;;;;;;5069454;28;20028;-72
2021/03/31 09:09:48;;;;;;;14.82;5.75;;;19.60;83.10;;;;;;5064709;28;20074;-71
2021/03/31 09:12:16;;;;;;;11.23;6.32;;;19.70;84.20;;;;;;5068471;28;20021;-72
2021/03/31 09:14:44;;;;;;;11.32;6.35;;;19.80;81.80;;;;;;5066423;28;20027;-71
2021/03/31 09:17:18;;;;;;;12.95;5.75;;;19.90;80.60;;;;;;5065339;28;20127;-72
2021/03/31 09:19:45;;;;;;;11.20;6.65;;;20.10;83.10;;;;;;5070149;28;20025;-71
2021/03/31 09:22:15;;;;;;;15.77;7.38;;;20.20;82.50;;;;;;5062261;28;20070;-72
2021/03/31 09:24:43;;;;;;;11.88;6.80;;;20.20;78.90;;;;;;5062791;28;20020;-71
2021/03/31 09:27:14;;;;;;;12.02;6.70;;;20.30;78.00;;;;;;5065986;28;20034;-72
2021/03/31 09:29:44;;;;;;;12.07;6.60;;;20.40;80.50;;;;;;5067934;28;20054;-72
2021/03/31 09:32:13;;;;;;;10.02;6.32;;;20.50;77.90;;;;;;5065930;28;20024;-72
2021/03/31 09:34:40;;;;;;;9.00;5.88;;;20.70;77.60;;;;;;5069787;28;20423;-72
2021/03/31 09:37:13;;;;;;;14.15;6.43;;;20.80;79.50;;;;;;5069616;28;20137;-73
2021/03/31 09:39:45;;;;;;;9.40;6.15;;;21.00;79.70;;;;;;5064870;28;20033;-73
2021/03/31 09:42:21;;;;;;;12.10;5.70;;;21.10;76.60;;;;;;5062655;28;20021;-71
2021/03/31 09:44:48;;;;;;;14.73;6.55;;;21.40;77.70;;;;;;5066213;28;20060;-71
2021/03/31 09:47:15;;;;;;;12.20;6.88;;;21.40;77.10;;;;;;5066896;28;20016;-71
2021/03/31 09:49:43;;;;;;;14.32;5.93;;;21.40;76.60;;;;;;5058925;28;20025;-70
2021/03/31 09:52:09;;;;;;;11.75;6.13;;;21.60;79.50;;;;;;5065232;28;20030;-72
2021/03/31 09:54:35;;;;;;;10.18;5.70;;;21.80;76.70;;;;;;5062917;28;20112;-70
2021/03/31 09:57:02;;;;;;;12.75;6.28;;;22.00;74.30;;;;;;5067722;28;20463;-73
2021/03/31 09:59:28;;;;;;;10.57;5.57;;;22.10;75.20;;;;;;5065963;28;20021;-73
2021/03/31 10:01:55;;;;;;;11.65;5.60;;;22.20;76.90;;;;;;5065856;28;20029;-73
2021/03/31 10:04:20;;;;;;;11.75;6.00;;;22.30;71.90;;;;;;5064689;28;20028;-72
2021/03/31 10:07:05;;;;;;;10.27;6.78;;;22.40;69.80;;;;;;5069658;28;20032;-73
2021/03/31 10:09:39;;;;;;;13.05;5.95;;;22.50;72.10;;;;;;5062515;28;20033;-72
2021/03/31 10:12:05;;;;;;;15.88;6.68;;;22.60;72.70;;;;;;5065117;28;20059;-72
2021/03/31 10:14:31;;;;;;;9.13;5.03;;;22.80;68.70;;;;;;5068929;28;20048;-73
2021/03/31 10:16:57;;;;;;;10.68;6.22;;;22.80;70.80;;;;;;5067519;28;20579;-72
2021/03/31 10:19:23;;;;;;;13.52;6.70;;;22.70;69.50;;;;;;5062953;28;20025;-73
2021/03/31 10:21:48;;;;;;;6.97;5.82;;;22.70;70.90;;;;;;5066461;28;20472;-73
2021/03/31 10:24:32;;;;;;;11.52;6.07;;;22.90;72.30;;;;;;5063574;28;20036;-73
2021/03/31 10:26:58;;;;;;;11.20;7.05;;;23.00;72.10;;;;;;5065117;28;20477;-73
2021/03/31 10:29:25;;;;;;;9.82;6.60;;;23.20;70.90;;;;;;5062026;28;20038;-73
2021/03/31 10:31:51;;;;;;;12.27;6.38;;;23.20;71.00;;;;;;5066362;28;20071;-74
2021/03/31 10:34:18;;;;;;;14.07;6.57;;;23.30;70.20;;;;;;5067812;28;20489;-73
2021/03/31 10:54:09;;;;;;;11.80;7.25;;;24.00;62.20;;;;;;5062295;28;20046;-73
2021/03/31 10:56:35;;;;;;;12.10;6.78;;;24.00;59.30;;;;;;5058956;28;20044;-72
2021/03/31 10:59:01;;;;;;;17.20;6.97;;;23.90;61.60;;;;;;5065861;28;20089;-72
2021/03/31 11:01:26;;;;;;;10.52;6.40;;;24.10;61.40;;;;;;5063535;28;20448;-72
2021/03/31 11:03:52;;;;;;;8.48;5.05;;;24.20;64.50;;;;;;5059062;28;20120;-71
2021/03/31 11:06:17;;;;;;;10.00;5.90;;;24.30;62.90;;;;;;5065876;28;20027;-72
2021/03/31 11:08:43;;;;;;;10.93;5.88;;;24.50;62.70;;;;;;5061655;28;20017;-72
2021/03/31 11:11:10;;;;;;;8.52;5.57;;;24.60;63.30;;;;;;5068433;28;20107;-72
2021/03/31 11:13:36;;;;;;;11.52;6.15;;;24.60;61.00;;;;;;5070063;28;20426;-72
2021/03/31 11:16:08;;;;;;;10.77;6.13;;;24.70;62.20;;;;;;5067900;28;20518;-71
2021/03/31 11:21:26;;;;;;;7.57;5.10;;;24.70;60.80;;;;;;5061760;28;20522;-73
2021/03/31 11:26:35;;;;;;;10.57;5.57;;;24.60;61.20;;;;;;5063125;28;20504;-72
2021/03/31 11:29:01;;;;;;;8.32;5.60;;;24.80;62.80;;;;;;5063455;28;20021;-72
2021/03/31 11:31:26;;;;;;;8.25;5.47;;;24.70;62.60;;;;;;5063031;28;20033;-70
2021/03/31 11:33:53;;;;;;;11.50;6.57;;;24.70;61.80;;;;;;5063879;28;20029;-70
2021/03/31 11:36:18;;;;;;;10.65;7.05;;;24.80;62.70;;;;;;5066425;28;20132;-71
2021/03/31 11:38:44;;;;;;;12.27;6.43;;;24.70;63.00;;;;;;5057182;28;20111;-72
2021/03/31 11:41:10;;;;;;;8.98;5.78;;;24.70;61.10;;;;;;5063934;28;20111;-72
2021/03/31 11:43:36;;;;;;;11.43;6.05;;;24.90;62.70;;;;;;5063285;28;20158;-71
2021/03/31 11:46:01;;;;;;;12.07;6.60;;;25.00;62.10;;;;;;5058915;28;20044;-72
2021/03/31 11:48:27;;;;;;;7.82;5.75;;;25.00;61.40;;;;;;5062503;28;20104;-71
2021/03/31 11:50:52;;;;;;;8.80;6.32;;;25.20;63.30;;;;;;5068112;28;20104;-72
2021/03/31 11:53:18;;;;;;;10.45;6.50;;;25.20;60.10;;;;;;5069062;28;20050;-72
2021/03/31 11:55:44;;;;;;;11.77;5.63;;;25.20;60.70;;;;;;5063417;28;20379;-71
2021/03/31 11:58:09;;;;;;;10.07;6.40;;;25.30;62.40;;;;;;5065599;28;20473;-72
2021/03/31 12:00:38;;;;;;;10.93;5.85;;;25.40;61.10;;;;;;5058034;28;20032;-72
2021/03/31 12:03:06;;;;;;;13.82;7.07;;;25.40;59.50;;;;;;5065315;28;20025;-68
2021/03/31 12:05:32;;;;;;;10.90;6.18;;;25.40;59.10;;;;;;5063092;28;20463;-71
2021/03/31 12:07:58;;;;;;;12.07;6.60;;;25.30;60.40;;;;;;5064436;28;20518;-71
2021/03/31 12:10:24;;;;;;;9.23;6.45;;;25.40;62.40;;;;;;5066061;28;20047;-69
2021/03/31 12:12:49;;;;;;;10.15;6.22;;;25.30;59.30;;;;;;5067804;28;20491;-72
2021/03/31 12:15:15;;;;;;;9.25;5.15;;;25.30;59.30;;;;;;5060032;28;20021;-72
2021/03/31 12:17:41;;;;;;;11.57;6.70;;;25.30;62.20;;;;;;5064627;28;20519;-71
2021/03/31 12:20:10;;;;;;;10.32;6.38;;;25.50;59.40;;;;;;5064319;28;20031;-72
2021/03/31 12:22:36;;;;;;;14.68;6.20;;;25.50;61.80;;;;;;5070909;28;20025;-72
2021/03/31 12:25:04;;;;;;;12.35;6.70;;;25.50;59.20;;;;;;5068464;28;20016;-71
2021/03/31 12:27:33;;;;;;;10.38;6.72;;;25.50;59.70;;;;;;5062869;28;20025;-71
2021/03/31 12:29:59;;;;;;;11.85;7.47;;;25.50;59.00;;;;;;5071231;28;20499;-72
2021/03/31 12:32:24;;;;;;;9.38;6.25;;;25.40;59.30;;;;;;5071705;28;20016;-71
2021/03/31 12:34:52;;;;;;;11.77;6.15;;;25.50;60.30;;;;;;5067264;28;20436;-71
2021/03/31 12:37:18;;;;;;;11.45;7.63;;;25.70;60.40;;;;;;5070580;28;20037;-71
2021/03/31 12:39:43;;;;;;;14.38;6.85;;;25.70;61.20;;;;;;5070448;28;20033;-71
2021/03/31 12:42:09;;;;;;;11.68;6.90;;;25.90;60.60;;;;;;5073245;28;20029;-71
2021/03/31 12:44:34;;;;;;;12.93;6.10;;;26.00;59.70;;;;;;5062383;28;20566;-68
2021/03/31 12:47:00;;;;;;;12.57;6.05;;;26.00;59.50;;;;;;5070082;28;20081;-68
2021/03/31 12:49:27;;;;;;;12.35;6.68;;;25.90;59.00;;;;;;5067767;28;20158;-68
2021/03/31 12:52:06;;;;;;;15.40;7.50;;;26.00;60.00;;;;;;5063236;28;20067;-68
2021/03/31 12:54:39;;;;;;;15.23;7.43;;;25.90;57.90;;;;;;5064773;28;20037;-69
2021/03/31 12:57:06;;;;;;;8.93;6.20;;;25.80;58.90;;;;;;5063051;28;20123;-69
2021/03/31 12:59:32;;;;;;;9.93;5.57;;;25.90;60.60;;;;;;5070066;28;20013;-69
2021/03/31 13:01:58;;;;;;;12.82;6.03;;;26.00;60.20;;;;;;5064670;28;20024;-69
2021/03/31 13:04:24;;;;;;;12.63;5.65;;;26.10;58.50;;;;;;5063263;28;20017;-69
2021/03/31 13:06:50;;;;;;;8.45;6.18;;;26.00;61.20;;;;;;5069564;28;20029;-68
2021/03/31 13:09:16;;;;;;;11.05;6.82;;;26.00;57.80;;;;;;5068710;28;20035;-69